METAR Data
IDs: Format: Raw Decoded Include TAF

Data at: 1448 UTC 27 Nov 2021

LJMB 271430Z 01005KT 8000 FEW013 BKN063 02/02 Q0996